sensor_id;sensor_type;location;lat;lon;timestamp;pressure;altitude;pressure_sealevel;temperature;humidity
5988;BME280;3021;51.000;6.980;2022-10-01T00:00:54;67704.72;;;12.61;100.00
5988;BME280;3021;51.000;6.980;2022-10-01T00:03:21;67702.41;;;12.59;100.00
5988;BME280;3021;51.000;6.980;2022-10-01T00:06:00;67708.31;;;12.67;100.00
5988;BME280;3021;51.000;6.980;2022-10-01T00:08:27;67709.94;;;12.66;100.00
5988;BME280;3021;51.000;6.980;2022-10-01T00:10:53;67715.56;;;12.69;100.00
5988;BME280;3021;51.000;6.980;2022-10-01T00:13:18;67707.03;;;12.64;100.00
5988;BME280;3021;51.000;6.980;2022-10-01T00:15:45;67708.78;;;12.65;100.00
5988;BME280;3021;51.000;6.980;2022-10-01T00:18:11;67715.13;;;12.71;100.00
5988;BME280;3021;51.000;6.980;2022-10-01T00:20:43;67716.88;;;12.72;100.00
5988;BME280;3021;51.000;6.980;2022-10-01T00:23:13;67718.03;;;12.73;100.00
5988;BME280;3021;51.000;6.980;2022-10-01T00:25:39;67719.78;;;12.75;100.00
5988;BME280;3021;51.000;6.980;2022-10-01T00:28:05;67720.91;;;12.76;100.00
5988;BME280;3021;51.000;6.980;2022-10-01T00:30:31;67718.03;;;12.73;100.00
5988;BME280;3021;51.000;6.980;2022-10-01T00:32:56;67711.66;;;12.68;100.00
5988;BME280;3021;51.000;6.980;2022-10-01T00:35:22;67705.16;;;12.59;100.00
5988;BME280;3021;51.000;6.980;2022-10-01T00:37:48;67689.09;;;12.48;100.00
5988;BME280;3021;51.000;6.980;2022-10-01T00:40:16;67677.50;;;12.37;100.00
5988;BME280;3021;51.000;6.980;2022-10-01T00:42:41;67658.84;;;12.18;100.00
5988;BME280;3021;51.000;6.980;2022-10-01T00:45:09;67623.53;;;11.87;100.00
5988;BME280;3021;51.000;6.980;2022-10-01T00:47:42;67593.75;;;11.65;100.00
5988;BME280;3021;51.000;6.980;2022-10-01T00:52:59;67554.72;;;11.26;100.00
5988;BME280;3021;51.000;6.980;2022-10-01T00:55:37;67533.31;;;11.06;100.00
5988;BME280;3021;51.000;6.980;2022-10-01T00:58:03;67528.69;;;11.02;100.00
5988;BME280;3021;51.000;6.980;2022-10-01T01:00:30;67513.53;;;10.86;100.00
5988;BME280;3021;51.000;6.980;2022-10-01T01:02:56;67503.25;;;10.80;100.00
5988;BME280;3021;51.000;6.980;2022-10-01T01:05:21;67491.72;;;10.69;100.00
5988;BME280;3021;51.000;6.980;2022-10-01T01:07:49;67483.03;;;10.62;100.00
5988;BME280;3021;51.000;6.980;2022-10-01T01:10:18;67474.50;;;10.57;100.00
5988;BME280;3021;51.000;6.980;2022-10-01T01:13:16;67475.53;;;10.55;100.00
5988;BME280;3021;51.000;6.980;2022-10-01T01:15:59;67468.59;;;10.49;100.00
5988;BME280;3021;51.000;6.980;2022-10-01T01:18:50;67467.44;;;10.48;100.00
5988;BME280;3021;51.000;6.980;2022-10-01T01:21:32;67468.00;;;10.48;100.00
5988;BME280;3021;51.000;6.980;2022-10-01T01:25:03;67467.44;;;10.48;100.00
5988;BME280;3021;51.000;6.980;2022-10-01T01:27:21;67457.75;;;10.42;100.00
5988;BME280;3021;51.000;6.980;2022-10-01T01:29:52;67449.09;;;10.34;100.00
5988;BME280;3021;51.000;6.980;2022-10-01T01:32:40;67457.63;;;10.39;100.00
5988;BME280;3021;51.000;6.980;2022-10-01T01:35:14;67456.47;;;10.38;100.00
5988;BME280;3021;51.000;6.980;2022-10-01T01:37:48;67463.22;;;10.42;100.00
5988;BME280;3021;51.000;6.980;2022-10-01T01:40:16;67454.88;;;10.39;100.00
5988;BME280;3021;51.000;6.980;2022-10-01T01:42:43;67459.34;;;10.41;100.00
5988;BME280;3021;51.000;6.980;2022-10-01T01:45:16;67464.53;;;10.45;100.00
5988;BME280;3021;51.000;6.980;2022-10-01T01:47:44;67457.63;;;10.39;100.00
5988;BME280;3021;51.000;6.980;2022-10-01T01:50:11;67453.56;;;10.35;100.00
5988;BME280;3021;51.000;6.980;2022-10-01T01:52:38;67455.88;;;10.37;100.00
5988;BME280;3021;51.000;6.980;2022-10-01T01:55:04;67453.72;;;10.38;100.00
5988;BME280;3021;51.000;6.980;2022-10-01T01:57:32;67452.56;;;10.37;100.00
5988;BME280;3021;51.000;6.980;2022-10-01T01:59:57;67453.72;;;10.38;100.00
5988;BME280;3021;51.000;6.980;2022-10-01T02:02:26;67461.66;;;10.43;100.00
5988;BME280;3021;51.000;6.980;2022-10-01T02:05:01;67455.28;;;10.37;100.00
5988;BME280;3021;51.000;6.980;2022-10-01T02:13:38;67458.75;;;10.40;100.00
5988;BME280;3021;51.000;6.980;2022-10-01T02:16:26;67451.97;;;10.36;100.00
5988;BME280;3021;51.000;6.980;2022-10-01T02:19:04;67456.03;;;10.40;100.00
5988;BME280;3021;51.000;6.980;2022-10-01T02:27:18;67457.47;;;10.36;100.00
5988;BME280;3021;51.000;6.980;2022-10-01T02:29:45;67457.75;;;10.42;100.00
5988;BME280;3021;51.000;6.980;2022-10-01T02:32:13;67457.63;;;10.39;100.00
5988;BME280;3021;51.000;6.980;2022-10-01T02:34:42;67448.91;;;10.31;100.00
5988;BME280;3021;51.000;6.980;2022-10-01T02:37:09;67451.84;;;10.34;100.00
5988;BME280;3021;51.000;6.980;2022-10-01T02:39:37;67449.09;;;10.34;100.00
5988;BME280;3021;51.000;6.980;2022-10-01T02:42:07;67454.16;;;10.36;100.00
5988;BME280;3021;51.000;6.980;2022-10-01T02:44:36;67459.91;;;10.41;100.00
5988;BME280;3021;51.000;6.980;2022-10-01T02:47:19;67456.59;;;10.41;100.00
5988;BME280;3021;51.000;6.980;2022-10-01T02:49:46;67457.03;;;10.38;100.00
5988;BME280;3021;51.000;6.980;2022-10-01T02:52:26;67453.72;;;10.38;100.00
5988;BME280;3021;51.000;6.980;2022-10-01T02:55:03;67455.44;;;10.40;100.00
5988;BME280;3021;51.000;6.980;2022-10-01T02:57:29;67459.91;;;10.41;100.00
5988;BME280;3021;51.000;6.980;2022-10-01T03:00:00;67458.75;;;10.40;100.00
5988;BME280;3021;51.000;6.980;2022-10-01T03:02:27;67466.84;;;10.47;100.00
5988;BME280;3021;51.000;6.980;2022-10-01T03:04:54;67466.13;;;10.44;100.00
5988;BME280;3021;51.000;6.980;2022-10-01T03:07:22;67465.25;;;10.48;100.00
5988;BME280;3021;51.000;6.980;2022-10-01T03:09:48;67465.25;;;10.48;100.00
5988;BME280;3021;51.000;6.980;2022-10-01T03:12:14;67468.00;;;10.48;100.00
5988;BME280;3021;51.000;6.980;2022-10-01T03:14:41;67464.69;;;10.48;100.00
5988;BME280;3021;51.000;6.980;2022-10-01T03:17:07;67466.28;;;10.47;100.00
5988;BME280;3021;51.000;6.980;2022-10-01T03:19:32;67468.00;;;10.48;100.00
5988;BME280;3021;51.000;6.980;2022-10-01T03:21:58;67461.81;;;10.45;100.00
5988;BME280;3021;51.000;6.980;2022-10-01T03:24:23;67465.72;;;10.46;100.00
5988;BME280;3021;51.000;6.980;2022-10-01T03:26:48;67467.44;;;10.48;100.00
5988;BME280;3021;51.000;6.980;2022-10-01T03:29:15;67470.47;;;10.53;100.00
5988;BME280;3021;51.000;6.980;2022-10-01T03:31:40;67477.97;;;10.60;100.00
5988;BME280;3021;51.000;6.980;2022-10-01T03:34:06;67470.47;;;10.53;100.00
5988;BME280;3021;51.000;6.980;2022-10-01T03:36:31;67468.59;;;10.49;100.00
5988;BME280;3021;51.000;6.980;2022-10-01T03:38:56;67471.47;;;10.51;100.00
5988;BME280;3021;51.000;6.980;2022-10-01T03:41:22;67473.34;;;10.55;100.00
5988;BME280;3021;51.000;6.980;2022-10-01T03:43:47;67475.53;;;10.55;100.00
5988;BME280;3021;51.000;6.980;2022-10-01T03:46:13;67478.41;;;10.58;100.00
5988;BME280;3021;51.000;6.980;2022-10-01T03:48:38;67474.22;;;10.51;100.00
5988;BME280;3021;51.000;6.980;2022-10-01T03:51:04;67475.53;;;10.55;100.00
5988;BME280;3021;51.000;6.980;2022-10-01T03:53:30;67464.25;;;10.50;100.00
5988;BME280;3021;51.000;6.980;2022-10-01T03:55:59;67465.84;;;10.49;100.00
5988;BME280;3021;51.000;6.980;2022-10-01T03:58:25;67475.69;;;10.58;100.00
5988;BME280;3021;51.000;6.980;2022-10-01T04:00:51;67478.56;;;10.60;100.00
5988;BME280;3021;51.000;6.980;2022-10-01T04:03:17;67477.56;;;10.62;100.00
5988;BME280;3021;51.000;6.980;2022-10-01T04:05:43;67475.69;;;10.58;100.00
5988;BME280;3021;51.000;6.980;2022-10-01T04:08:09;67472.06;;;10.52;100.00
5988;BME280;3021;51.000;6.980;2022-10-01T04:10:35;67473.34;;;10.55;100.00
5988;BME280;3021;51.000;6.980;2022-10-01T04:13:01;67472.22;;;10.54;100.00
5988;BME280;3021;51.000;6.980;2022-10-01T04:15:26;67476.25;;;10.58;100.00
5988;BME280;3021;51.000;6.980;2022-10-01T04:17:52;67481.44;;;10.63;100.00
5988;BME280;3021;51.000;6.980;2022-10-01T04:20:18;67482.44;;;10.61;100.00
5988;BME280;3021;51.000;6.980;2022-10-01T04:22:43;67478.41;;;10.58;100.00
5988;BME280;3021;51.000;6.980;2022-10-01T04:25:10;67483.63;;;10.62;100.00
5988;BME280;3021;51.000;6.980;2022-10-01T04:27:36;67479.72;;;10.61;100.00
5988;BME280;3021;51.000;6.980;2022-10-01T04:30:03;67481.88;;;10.61;100.00
5988;BME280;3021;51.000;6.980;2022-10-01T04:32:29;67477.25;;;10.57;100.00
5988;BME280;3021;51.000;6.980;2022-10-01T04:34:54;67482.59;;;10.64;100.00
5988;BME280;3021;51.000;6.980;2022-10-01T04:37:20;67493.44;;;10.71;100.00
5988;BME280;3021;51.000;6.980;2022-10-01T04:39:46;67491.25;;;10.71;100.00
5988;BME280;3021;51.000;6.980;2022-10-01T04:42:13;67493.44;;;10.71;100.00
5988;BME280;3021;51.000;6.980;2022-10-01T04:44:38;67496.91;;;10.74;100.00
5988;BME280;3021;51.000;6.980;2022-10-01T04:47:04;67494.16;;;10.74;100.00
5988;BME280;3021;51.000;6.980;2022-10-01T04:49:29;67500.53;;;10.80;100.00
5988;BME280;3021;51.000;6.980;2022-10-01T04:51:57;67504.56;;;10.83;100.00
5988;BME280;3021;51.000;6.980;2022-10-01T04:54:22;67502.25;;;10.81;100.00
5988;BME280;3021;51.000;6.980;2022-10-01T04:56:47;67510.19;;;10.86;100.00
5988;BME280;3021;51.000;6.980;2022-10-01T04:59:13;67518.44;;;10.96;100.00
5988;BME280;3021;51.000;6.980;2022-10-01T05:01:38;67509.19;;;10.87;100.00
5988;BME280;3021;51.000;6.980;2022-10-01T05:04:06;67521.78;;;10.96;100.00
5988;BME280;3021;51.000;6.980;2022-10-01T05:06:32;67517.84;;;10.95;100.00
5988;BME280;3021;51.000;6.980;2022-10-01T05:08:58;67522.03;;;11.01;100.00
5988;BME280;3021;51.000;6.980;2022-10-01T05:11:23;67523.50;;;10.98;100.00
5988;BME280;3021;51.000;6.980;2022-10-01T05:13:48;67525.38;;;11.02;100.00
5988;BME280;3021;51.000;6.980;2022-10-01T05:16:14;67524.63;;;10.99;100.00
5988;BME280;3021;51.000;6.980;2022-10-01T05:18:39;67527.13;;;11.03;100.00
5988;BME280;3021;51.000;6.980;2022-10-01T05:21:05;67532.31;;;11.08;100.00
5988;BME280;3021;51.000;6.980;2022-10-01T05:23:31;67535.06;;;11.08;100.00
5988;BME280;3021;51.000;6.980;2022-10-01T05:25:57;67532.75;;;11.06;100.00
5988;BME280;3021;51.000;6.980;2022-10-01T05:28:23;67535.06;;;11.08;100.00
5988;BME280;3021;51.000;6.980;2022-10-01T05:30:48;67531.16;;;11.07;100.00
5988;BME280;3021;51.000;6.980;2022-10-01T05:33:15;67530.13;;;11.09;100.00
5988;BME280;3021;51.000;6.980;2022-10-01T05:35:40;67535.06;;;11.08;100.00
5988;BME280;3021;51.000;6.980;2022-10-01T05:38:05;67534.19;;;11.12;100.00
5988;BME280;3021;51.000;6.980;2022-10-01T05:40:31;67533.47;;;11.09;100.00
5988;BME280;3021;51.000;6.980;2022-10-01T05:42:58;67529.41;;;11.05;100.00
5988;BME280;3021;51.000;6.980;2022-10-01T05:45:26;67529.41;;;11.05;100.00
5988;BME280;3021;51.000;6.980;2022-10-01T05:47:58;67531.00;;;11.04;100.00
5988;BME280;3021;51.000;6.980;2022-10-01T05:50:24;67535.78;;;11.11;100.00
5988;BME280;3021;51.000;6.980;2022-10-01T05:52:50;67535.22;;;11.11;100.00
5988;BME280;3021;51.000;6.980;2022-10-01T05:55:18;67531.59;;;11.05;100.00
5988;BME280;3021;51.000;6.980;2022-10-01T05:57:43;67537.94;;;11.11;100.00
5988;BME280;3021;51.000;6.980;2022-10-01T06:00:09;67535.63;;;11.09;100.00
5988;BME280;3021;51.000;6.980;2022-10-01T06:02:37;67530.00;;;11.06;100.00
5988;BME280;3021;51.000;6.980;2022-10-01T06:05:02;67537.50;;;11.13;100.00
5988;BME280;3021;51.000;6.980;2022-10-01T06:07:30;67540.97;;;11.16;100.00
5988;BME280;3021;51.000;6.980;2022-10-01T06:09:55;67541.56;;;11.16;100.00
5988;BME280;3021;51.000;6.980;2022-10-01T06:12:20;67546.63;;;11.18;100.00
5988;BME280;3021;51.000;6.980;2022-10-01T06:14:46;67538.66;;;11.14;100.00
5988;BME280;3021;51.000;6.980;2022-10-01T06:17:11;67543.72;;;11.16;100.00
5988;BME280;3021;51.000;6.980;2022-10-01T06:19:36;67538.22;;;11.16;100.00
5988;BME280;3021;51.000;6.980;2022-10-01T06:22:02;67542.72;;;11.17;100.00
5988;BME280;3021;51.000;6.980;2022-10-01T06:24:27;67548.34;;;11.20;100.00
5988;BME280;3021;51.000;6.980;2022-10-01T06:26:52;67553.69;;;11.27;100.00
5988;BME280;3021;51.000;6.980;2022-10-01T06:29:18;67554.13;;;11.25;100.00
5988;BME280;3021;51.000;6.980;2022-10-01T06:31:43;67563.53;;;11.36;100.00
5988;BME280;3021;51.000;6.980;2022-10-01T06:34:08;67563.97;;;11.34;100.00
5988;BME280;3021;51.000;6.980;2022-10-01T06:36:33;67567.59;;;11.39;100.00
5988;BME280;3021;51.000;6.980;2022-10-01T06:38:59;67572.63;;;11.41;100.00
5988;BME280;3021;51.000;6.980;2022-10-01T06:41:24;67571.63;;;11.43;100.00
5988;BME280;3021;51.000;6.980;2022-10-01T06:43:50;67567.59;;;11.39;100.00
5988;BME280;3021;51.000;6.980;2022-10-01T06:46:15;67571.03;;;11.43;100.00
5988;BME280;3021;51.000;6.980;2022-10-01T06:48:40;67583.19;;;11.53;100.00
5988;BME280;3021;51.000;6.980;2022-10-01T06:51:06;67580.31;;;11.51;100.00
5988;BME280;3021;51.000;6.980;2022-10-01T06:53:32;67588.97;;;11.58;100.00
5988;BME280;3021;51.000;6.980;2022-10-01T06:56:03;67595.34;;;11.64;100.00
5988;BME280;3021;51.000;6.980;2022-10-01T06:58:29;67599.97;;;11.68;100.00
5988;BME280;3021;51.000;6.980;2022-10-01T07:00:58;67609.78;;;11.77;100.00
5988;BME280;3021;51.000;6.980;2022-10-01T07:03:25;67614.41;;;11.81;100.00
5988;BME280;3021;51.000;6.980;2022-10-01T07:05:50;67612.69;;;11.80;100.00
5988;BME280;3021;51.000;6.980;2022-10-01T07:08:16;67618.47;;;11.85;100.00
5988;BME280;3021;51.000;6.980;2022-10-01T07:10:44;67632.97;;;11.98;100.00
5988;BME280;3021;51.000;6.980;2022-10-01T07:13:17;67628.34;;;11.93;100.00
5988;BME280;3021;51.000;6.980;2022-10-01T07:15:45;67636.44;;;12.01;100.00
5988;BME280;3021;51.000;6.980;2022-10-01T07:18:11;67642.22;;;12.06;100.00
5988;BME280;3021;51.000;6.980;2022-10-01T07:20:38;67647.44;;;12.10;100.00
5988;BME280;3021;51.000;6.980;2022-10-01T07:23:05;67655.38;;;12.15;100.00
5988;BME280;3021;51.000;6.980;2022-10-01T07:25:31;67660.88;;;12.25;100.00
5988;BME280;3021;51.000;6.980;2022-10-01T07:27:59;67672.16;;;12.30;100.00
5988;BME280;3021;51.000;6.980;2022-10-01T07:30:26;67674.63;;;12.35;100.00
5988;BME280;3021;51.000;6.980;2022-10-01T07:32:51;67682.72;;;12.42;100.00
5988;BME280;3021;51.000;6.980;2022-10-01T07:35:18;67688.50;;;12.47;100.00
5988;BME280;3021;51.000;6.980;2022-10-01T07:37:47;67687.94;;;12.47;100.00
5988;BME280;3021;51.000;6.980;2022-10-01T07:40:14;67698.78;;;12.54;100.00
5988;BME280;3021;51.000;6.980;2022-10-01T07:42:43;67702.97;;;12.60;100.00
5988;BME280;3021;51.000;6.980;2022-10-01T07:45:09;67708.91;;;12.68;100.00
5988;BME280;3021;51.000;6.980;2022-10-01T07:47:34;67720.19;;;12.73;100.00
5988;BME280;3021;51.000;6.980;2022-10-01T07:50:00;67724.25;;;12.76;100.00
5988;BME280;3021;51.000;6.980;2022-10-01T07:52:26;67718.16;;;12.76;100.00
5988;BME280;3021;51.000;6.980;2022-10-01T07:54:51;67732.50;;;12.86;100.00
5988;BME280;3021;51.000;6.980;2022-10-01T07:57:16;67741.03;;;12.91;100.00
5988;BME280;3021;51.000;6.980;2022-10-01T07:59:42;67745.25;;;12.98;100.00
5988;BME280;3021;51.000;6.980;2022-10-01T08:02:15;67748.13;;;13.00;100.00
5988;BME280;3021;51.000;6.980;2022-10-01T08:04:41;67750.44;;;13.02;100.00
5988;BME280;3021;51.000;6.980;2022-10-01T08:07:25;67756.22;;;13.07;100.00
5988;BME280;3021;51.000;6.980;2022-10-01T08:09:50;67766.66;;;13.17;100.00
5988;BME280;3021;51.000;6.980;2022-10-01T08:12:16;67770.84;;;13.23;100.00
5988;BME280;3021;51.000;6.980;2022-10-01T08:14:43;67783.91;;;13.29;100.00
5988;BME280;3021;51.000;6.980;2022-10-01T08:17:09;67800.84;;;13.47;100.00
5988;BME280;3021;51.000;6.980;2022-10-01T08:19:35;67800.84;;;13.47;100.00
5988;BME280;3021;51.000;6.980;2022-10-01T08:22:00;67808.38;;;13.54;100.00
5988;BME280;3021;51.000;6.980;2022-10-01T08:24:26;67811.88;;;13.57;100.00
5988;BME280;3021;51.000;6.980;2022-10-01T08:26:52;67816.50;;;13.61;100.00
5988;BME280;3021;51.000;6.980;2022-10-01T08:29:20;67818.09;;;13.60;100.00
5988;BME280;3021;51.000;6.980;2022-10-01T08:31:45;67818.22;;;13.62;100.00
5988;BME280;3021;51.000;6.980;2022-10-01T08:34:11;67811.41;;;13.59;100.00
5988;BME280;3021;51.000;6.980;2022-10-01T08:36:36;67823.44;;;13.67;100.00
5988;BME280;3021;51.000;6.980;2022-10-01T08:39:02;67826.19;;;13.67;100.00
5988;BME280;3021;51.000;6.980;2022-10-01T08:41:57;67812.44;;;13.57;100.00
5988;BME280;3021;51.000;6.980;2022-10-01T08:44:30;67799.13;;;13.45;100.00
5988;BME280;3021;51.000;6.980;2022-10-01T08:47:05;67786.97;;;13.35;100.00
5988;BME280;3021;51.000;6.980;2022-10-01T08:49:39;67778.25;;;13.27;100.00
5988;BME280;3021;51.000;6.980;2022-10-01T08:54:59;67769.72;;;13.22;100.00
5988;BME280;3021;51.000;6.980;2022-10-01T08:57:31;67759.72;;;13.10;100.00
5988;BME280;3021;51.000;6.980;2022-10-01T09:00:01;67761.88;;;13.10;100.00
5988;BME280;3021;51.000;6.980;2022-10-01T09:02:31;67766.22;;;13.19;100.00
5988;BME280;3021;51.000;6.980;2022-10-01T09:04:59;67775.94;;;13.25;100.00
5988;BME280;3021;51.000;6.980;2022-10-01T09:13:17;67799.84;;;13.48;100.00
5988;BME280;3021;51.000;6.980;2022-10-01T09:16:05;67803.75;;;13.50;100.00
5988;BME280;3021;51.000;6.980;2022-10-01T09:24:45;67787.53;;;13.35;100.00
5988;BME280;3021;51.000;6.980;2022-10-01T09:27:17;67814.03;;;13.56;100.00
5988;BME280;3021;51.000;6.980;2022-10-01T09:29:49;67840.81;;;13.82;100.00
5988;BME280;3021;51.000;6.980;2022-10-01T09:32:19;67861.53;;;13.98;100.00
5988;BME280;3021;51.000;6.980;2022-10-01T09:34:46;67885.59;;;14.25;100.00
5988;BME280;3021;51.000;6.980;2022-10-01T09:37:20;67910.50;;;14.47;100.00
5988;BME280;3021;51.000;6.980;2022-10-01T09:42:39;67887.75;;;14.24;100.00
5988;BME280;3021;51.000;6.980;2022-10-01T09:45:04;67863.00;;;14.05;100.00
5988;BME280;3021;51.000;6.980;2022-10-01T09:47:31;67869.38;;;14.10;100.00
5988;BME280;3021;51.000;6.980;2022-10-01T09:49:58;67886.63;;;14.23;100.00
5988;BME280;3021;51.000;6.980;2022-10-01T09:52:35;67918.47;;;14.51;100.00
5988;BME280;3021;51.000;6.980;2022-10-01T09:55:15;67964.31;;;14.92;100.00
5988;BME280;3021;51.000;6.980;2022-10-01T09:57:46;68121.56;;;16.32;100.00
5988;BME280;3021;51.000;6.980;2022-10-01T10:00:25;68184.44;;;16.90;100.00
5988;BME280;3021;51.000;6.980;2022-10-01T10:02:52;68142.63;;;16.53;100.00
5988;BME280;3021;51.000;6.980;2022-10-01T10:07:56;68072.38;;;15.91;100.00
5988;BME280;3021;51.000;6.980;2022-10-01T10:10:27;68055.53;;;15.76;100.00
5988;BME280;3021;51.000;6.980;2022-10-01T10:12:58;68009.69;;;15.35;100.00
5988;BME280;3021;51.000;6.980;2022-10-01T10:15:25;67991.59;;;15.16;100.00
5988;BME280;3021;51.000;6.980;2022-10-01T10:17:51;67978.38;;;15.07;100.00
5988;BME280;3021;51.000;6.980;2022-10-01T10:20:29;67973.16;;;15.02;100.00
5988;BME280;3021;51.000;6.980;2022-10-01T10:23:08;67954.00;;;14.85;100.00
5988;BME280;3021;51.000;6.980;2022-10-01T10:25:36;67934.75;;;14.66;100.00
5988;BME280;3021;51.000;6.980;2022-10-01T10:28:02;67929.66;;;14.64;100.00
5988;BME280;3021;51.000;6.980;2022-10-01T10:30:29;67931.25;;;14.63;100.00
5988;BME280;3021;51.000;6.980;2022-10-01T10:33:02;67919.06;;;14.52;100.00
5988;BME280;3021;51.000;6.980;2022-10-01T10:35:29;67914.28;;;14.45;100.00
5988;BME280;3021;51.000;6.980;2022-10-01T10:37:56;67900.50;;;14.35;100.00
5988;BME280;3021;51.000;6.980;2022-10-01T10:40:24;67982.44;;;15.11;100.00
5988;BME280;3021;51.000;6.980;2022-10-01T10:42:53;68171.66;;;16.79;100.00
5988;BME280;3021;51.000;6.980;2022-10-01T10:45:29;68126.94;;;16.39;100.00
5988;BME280;3021;51.000;6.980;2022-10-01T10:47:55;68079.34;;;15.97;100.00
5988;BME280;3021;51.000;6.980;2022-10-01T10:50:38;68025.94;;;15.49;100.00
5988;BME280;3021;51.000;6.980;2022-10-01T10:53:25;67993.47;;;15.20;100.00
5988;BME280;3021;51.000;6.980;2022-10-01T10:58:18;67937.22;;;14.71;100.00
5988;BME280;3021;51.000;6.980;2022-10-01T11:00:46;67952.72;;;14.82;100.00
5988;BME280;3021;51.000;6.980;2022-10-01T11:03:16;68000.28;;;15.24;100.00
5988;BME280;3021;51.000;6.980;2022-10-01T11:05:42;68021.16;;;15.43;100.00
5988;BME280;3021;51.000;6.980;2022-10-01T11:08:13;68018.97;;;15.43;100.00
5988;BME280;3021;51.000;6.980;2022-10-01T11:10:50;68014.34;;;15.39;100.00
5988;BME280;3021;51.000;6.980;2022-10-01T11:19:26;67986.94;;;15.12;100.00
5988;BME280;3021;51.000;6.980;2022-10-01T11:22:17;67974.19;;;15.01;100.00
5988;BME280;3021;51.000;6.980;2022-10-01T11:38:19;67981.28;;;15.10;100.00
5988;BME280;3021;51.000;6.980;2022-10-01T11:40:54;68005.38;;;15.26;100.00
5988;BME280;3021;51.000;6.980;2022-10-01T11:43:28;67988.69;;;15.14;100.00
5988;BME280;3021;51.000;6.980;2022-10-01T11:46:05;67975.91;;;15.02;100.00
5988;BME280;3021;51.000;6.980;2022-10-01T11:48:51;67981.13;;;15.07;100.00
5988;BME280;3021;51.000;6.980;2022-10-01T11:51:22;67958.38;;;14.84;100.00
5988;BME280;3021;51.000;6.980;2022-10-01T11:53:54;67951.56;;;14.81;100.00
5988;BME280;3021;51.000;6.980;2022-10-01T11:56:33;67951.13;;;14.83;100.00
5988;BME280;3021;51.000;6.980;2022-10-01T11:59:44;67941.84;;;14.75;100.00
5988;BME280;3021;51.000;6.980;2022-10-01T12:02:24;67954.00;;;14.85;100.00
5988;BME280;3021;51.000;6.980;2022-10-01T12:05:09;67955.75;;;14.87;100.00
5988;BME280;3021;51.000;6.980;2022-10-01T12:12:52;67918.19;;;14.56;100.00
5988;BME280;3021;51.000;6.980;2022-10-01T12:15:29;67898.91;;;14.37;100.00
5988;BME280;3021;51.000;6.980;2022-10-01T12:18:01;67882.69;;;14.22;100.00
5988;BME280;3021;51.000;6.980;2022-10-01T12:20:37;67871.53;;;14.10;100.00
5988;BME280;3021;51.000;6.980;2022-10-01T12:23:12;67850.81;;;13.94;100.00
5988;BME280;3021;51.000;6.980;2022-10-01T12:25:43;67849.09;;;13.92;100.00
5988;BME280;3021;51.000;6.980;2022-10-01T12:28:12;67840.25;;;13.82;100.00
5988;BME280;3021;51.000;6.980;2022-10-01T12:30:45;67828.66;;;13.72;100.00
5988;BME280;3021;51.000;6.980;2022-10-01T12:38:54;67847.91;;;13.91;100.00
5988;BME280;3021;51.000;6.980;2022-10-01T12:44:58;67807.22;;;13.53;100.00
5988;BME280;3021;51.000;6.980;2022-10-01T12:47:49;67809.41;;;13.52;100.00
5988;BME280;3021;51.000;6.980;2022-10-01T12:50:32;67812.56;;;13.60;100.00
5988;BME280;3021;51.000;6.980;2022-10-01T13:01:47;67885.16;;;14.27;100.00
5988;BME280;3021;51.000;6.980;2022-10-01T13:13:26;67927.63;;;14.57;100.00
5988;BME280;3021;51.000;6.980;2022-10-01T13:16:01;67943.88;;;14.72;100.00
5988;BME280;3021;51.000;6.980;2022-10-01T13:24:08;67940.41;;;14.68;100.00
5988;BME280;3021;51.000;6.980;2022-10-01T13:32:30;67946.47;;;14.79;100.00
5988;BME280;3021;51.000;6.980;2022-10-01T13:34:58;67969.69;;;14.99;100.00
5988;BME280;3021;51.000;6.980;2022-10-01T13:37:41;67980.56;;;15.07;100.00
5988;BME280;3021;51.000;6.980;2022-10-01T13:50:30;68113.59;;;16.27;100.00
5988;BME280;3021;51.000;6.980;2022-10-01T13:53:12;68134.22;;;16.40;100.00
5988;BME280;3021;51.000;6.980;2022-10-01T13:55:40;68135.53;;;16.44;100.00
5988;BME280;3021;51.000;6.980;2022-10-01T13:58:42;68143.22;;;16.53;100.00
5988;BME280;3021;51.000;6.980;2022-10-01T14:06:42;68139.13;;;16.50;100.00
5988;BME280;3021;51.000;6.980;2022-10-01T14:09:14;68130.16;;;16.37;100.00
5988;BME280;3021;51.000;6.980;2022-10-01T14:11:44;68108.38;;;16.22;100.00
5988;BME280;3021;51.000;6.980;2022-10-01T14:14:37;68124.63;;;16.37;100.00
5988;BME280;3021;51.000;6.980;2022-10-01T14:17:28;68135.94;;;16.52;100.00
5988;BME280;3021;51.000;6.980;2022-10-01T14:19:55;68156.00;;;16.65;100.00
5988;BME280;3021;51.000;6.980;2022-10-01T14:25:19;68163.97;;;16.69;100.00
5988;BME280;3021;51.000;6.980;2022-10-01T14:30:23;68188.66;;;16.96;100.00
5988;BME280;3021;51.000;6.980;2022-10-01T14:35:55;68210.00;;;17.13;100.00
5988;BME280;3021;51.000;6.980;2022-10-01T14:38:23;68217.56;;;17.19;100.00
5988;BME280;3021;51.000;6.980;2022-10-01T14:40:50;68235.00;;;17.35;100.00
5988;BME280;3021;51.000;6.980;2022-10-01T14:43:23;68240.09;;;17.37;100.00
5988;BME280;3021;51.000;6.980;2022-10-01T14:48:23;68260.44;;;17.55;100.00
5988;BME280;3021;51.000;6.980;2022-10-01T14:50:51;68254.75;;;17.52;100.00
5988;BME280;3021;51.000;6.980;2022-10-01T14:53:20;68264.06;;;17.60;100.00
5988;BME280;3021;51.000;6.980;2022-10-01T14:55:47;68259.53;;;17.59;100.00
5988;BME280;3021;51.000;6.980;2022-10-01T14:58:30;68265.81;;;17.62;100.00
5988;BME280;3021;51.000;6.980;2022-10-01T15:00:56;68271.59;;;17.67;100.00
5988;BME280;3021;51.000;6.980;2022-10-01T15:03:22;68273.34;;;17.69;100.00
5988;BME280;3021;51.000;6.980;2022-10-01T15:05:49;68266.38;;;17.62;100.00
5988;BME280;3021;51.000;6.980;2022-10-01T15:08:18;68273.94;;;17.69;100.00
5988;BME280;3021;51.000;6.980;2022-10-01T15:11:01;68272.91;;;17.71;100.00
5988;BME280;3021;51.000;6.980;2022-10-01T15:13:40;68284.25;;;17.76;100.00
5988;BME280;3021;51.000;6.980;2022-10-01T15:16:18;68290.34;;;17.86;100.00
5988;BME280;3021;51.000;6.980;2022-10-01T15:18:48;68307.66;;;17.99;100.00
5988;BME280;3021;51.000;6.980;2022-10-01T15:21:23;68301.28;;;17.93;100.00
5988;BME280;3021;51.000;6.980;2022-10-01T15:23:49;68303.72;;;17.98;100.00
5988;BME280;3021;51.000;6.980;2022-10-01T15:26:21;68306.03;;;18.00;100.00
5988;BME280;3021;51.000;6.980;2022-10-01T15:29:09;68323.94;;;18.13;100.00
5988;BME280;3021;51.000;6.980;2022-10-01T15:31:36;68309.53;;;18.03;100.00